Bodensee (Kressbronn): 6,7°C  -  Teich der Wetterzentrale Bad Schussenried: 5,6°C |  Schneehöhe Kreuzthal-Steinberg (930 m ü. NN): 8 cm   
01.04.2020Höhe
ü. NN
ZeitTemperatur (°C)Nieder-
schlag
Luft-
feuchte
Luft-
druck
Wind
StationaktuellMinimumMaximumaktuellMaximum
Aldingen654 m06:51-5,1-5,1 (07:35)-0,3 (16:02)0,0 l/m²81%1023,40,0 km/h (0 Bft) W29,6 km/h (5 Bft) W (14:48)
Allmendingen541 m06:50-6,4-6,4 (07:35)-2,1 (15:10)0,0 l/m²87%1023,11,6 km/h (1 Bft) NO35,4 km/h (5 Bft) O (15:35)
Altshausen574 m06:50-4,0-4,1 (06:33)-1,1 (00:16)0,0 l/m²67%1020,54,8 km/h (1 Bft) N11,3 km/h (2 Bft) N (06:10)
Amstetten-Reutti663 m06:50-4,6-4,7 (06:35)-1,5 (16:55)0,0 l/m²86%1022,74,8 km/h (1 Bft) W-SW48,3 km/h (6 Bft) W (15:55)
Amtzell-Grenis677 m06:50-2,8-4,1 (06:05)-1,4 (00:00)0,0 l/m²62%1022,411,3 km/h (2 Bft) NO12,9 km/h (3 Bft) N (06:45)
Aulendorf570 m06:50-3,1-3,1 (06:48)-0,5 (00:00)0,0 l/m²72%1021,58,0 km/h (2 Bft) NO14,5 km/h (3 Bft) O-NO (05:13)
Bad Krozingen233 m06:50-2,3-2,3 (06:50)3,7 (16:05)0,0 l/m²78%1023,33,5 km/h (1 Bft) SW38,1 km/h (5 Bft) N (17:05)
Bad Saulgau595 m06:50-5,1-5,2 (07:00)-1,9 (15:00)0,0 l/m²88%1021,40,0 km/h (0 Bft) S-SO25,7 km/h (4 Bft) S (11:35)
Bad Saulgau, Mannsgrab588 m06:53-4,5-6,1 (05:34)-1,7 (00:17)0,0 l/m²86%1024,00,0 km/h (0 Bft) N-NW0,0 km/h (0 Bft) N (00:00)
Bad Saulgau-Lampertsweiler627 m06:50-4,3-4,8 (06:15)0,2 (00:00)0,0 l/m²82%1024,69,7 km/h (2 Bft) N-NW22,5 km/h (4 Bft) N-NW (01:15)
Bad Schussenried572 m06:50-4,2-4,2 (06:45)-1,1 (00:00)0,0 l/m²87%1021,10,0 km/h (0 Bft) NO9,7 km/h (2 Bft) NO (03:15)
Bergatreute615 m01:45-0,7-0,7 (00:45)0,0 (00:00)0,0 l/m²77%1023,512,9 km/h (3 Bft) NO16,1 km/h (3 Bft) O-NO (01:40)
Biberach (Riss), Boehringer533 m07:00-4,3-4,4 (07:00)-1,1 (00:30)0,0 l/m²90%1021,84,7 km/h (1 Bft) N-NW11,9 km/h (3 Bft) N (03:00)
Biberach (Riss), Realschule553 m06:55-4,1-4,2 (06:55)-0,3 (00:00)0,0 l/m²88%1023,612,9 km/h (3 Bft) N-NW12,9 km/h (3 Bft) N (06:05)
Burgrieden523 m06:50-4,2-4,2 (06:45)-0,4 (00:00)0,0 l/m²82%1022,70,0 km/h (0 Bft) NO4,8 km/h (1 Bft) O-NO (02:50)
Burgrieden-Hochstetten510 m06:50-4,8-4,8 (07:00)-0,9 (15:40)0,0 l/m²89%1023,11,6 km/h (1 Bft) N-NO25,7 km/h (4 Bft) NO (12:55)
Ebersbach579 m06:50-3,8-3,8 (05:55)-0,1 (00:00)0,0 l/m²86%1023,08,0 km/h (2 Bft) N16,1 km/h (3 Bft) NO (01:25)
Ebersbach-Boos605 m06:50-4,5-4,5 (06:50)-0,1 (00:00)0,0 l/m²89%1022,714,5 km/h (3 Bft) NO22,5 km/h (4 Bft) O (01:00)
Ebersbach-Menzenweiler661 m06:50-3,8-3,9 (06:20)-0,6 (00:00)0,0 l/m²88%1022,719,3 km/h (3 Bft) NO24,1 km/h (4 Bft) O-NO (01:05)
Ehingen535 m01:10-2,5-2,5 (01:10)-1,3 (00:05)0,0 l/m²70%1025,40,0 km/h (0 Bft) N-NO5,0 km/h (1 Bft) N-NO (00:15)
Erlenmoos645 m06:50-3,8-3,8 (06:50)-0,9 (00:00)0,0 l/m²85%1022,70,0 km/h (0 Bft) NO12,9 km/h (3 Bft) O-NO (01:35)
Ertingen569 m06:50-3,6-3,6 (06:40)-0,6 (00:00)0,0 l/m²84%1022,74,8 km/h (1 Bft) N16,1 km/h (3 Bft) N-NO (04:10)
Friedrichshafen405 m06:50-1,8-1,8 (07:00)0,9 (13:30)0,0 l/m²78%1022,511,3 km/h (2 Bft) NO27,4 km/h (4 Bft) NO (15:10)
Günzburg443 m06:50-4,9-4,9 (06:45)-1,1 (00:00)0,0 l/m²87%1020,70,0 km/h (0 Bft) NO0,0 km/h (0 Bft) NO (00:00)
Hochdorf-Appendorf537 m06:50-4,9-5,8 (06:05)-1,7 (00:15)0,0 l/m²66%1022,56,4 km/h (2 Bft) N-NO14,5 km/h (3 Bft) N-NW (03:20)
Höchsten802 m06:50-4,4-4,4 (06:45)-1,4 (00:00)0,0 l/m²84%1020,320,9 km/h (4 Bft) NO25,7 km/h (4 Bft) NO (02:45)
Horgenzell618 m06:50-1,9-1,9 (03:45)-0,6 (00:05)0,0 l/m²76%1020,14,8 km/h (1 Bft) N-NO19,3 km/h (3 Bft) N-NO (00:50)
Hoßkirch632 m06:50-6,2-6,6 (06:20)-1,0 (00:15)0,0 l/m²89%1021,50,0 km/h (0 Bft) O-SO14,5 km/h (3 Bft) O-NO (00:20)
Isny, Am Dreifingerbach695 m06:50-5,7-6,2 (06:25)0,1 (01:00)0,0 l/m²87%1021,20,0 km/h (0 Bft) W14,5 km/h (3 Bft) O-NO (01:05)
Isny, Weidachweg706 m06:50-4,8-4,8 (06:45)0,3 (00:25)0,0 l/m²78%1023,60,0 km/h (0 Bft) W12,9 km/h (3 Bft) W (00:10)
Kappel-Grafenhausen163 m06:45-1,8-1,8 (07:00)3,3 (14:55)0,0 l/m²79%1021,10,0 km/h (0 Bft) N30,6 km/h (5 Bft) N-NO (16:55)
Kißlegg-Staibshof709 m06:50-3,5-3,5 (06:50)-0,9 (00:00)0,0 l/m²82%1022,312,9 km/h (3 Bft) NO14,5 km/h (3 Bft) O (01:50)
Kressbronn398 m06:54-2,5-2,5 (06:50)1,4 (00:00)0,0 l/m²78%1021,10,0 km/h (0 Bft) NO22,5 km/h (4 Bft) NO (00:54)
Kreuzthal-Steinberg-Alpe930 m06:50-4,8-4,9 (06:50)-2,5 (00:00)0,0 l/m²89%1022,02,2 km/h (1 Bft) W22,0 km/h (4 Bft) W-NW (00:10)
Kreuzthal-Steinberggipfel1040 m06:50-3,6-4,0 (02:20)-3,1 (00:10)-73%1022,012,6 km/h (3 Bft) O37,1 km/h (5 Bft) O-SO (00:10)
Kristberg im Montafon (AT)1425 m06:50-6,2-6,6 (04:51)-5,3 (00:40)0,0 l/m²55%1026,30,0 km/h (0 Bft) N10,1 km/h (2 Bft) NO (01:47)
Laupheim500 m06:50-3,9-4,0 (06:35)0,0 (00:00)0,0 l/m²83%1022,11,6 km/h (1 Bft) O9,7 km/h (2 Bft) O-SO (00:20)
Leutkirch-Heggelbach670 m06:50-4,8-4,8 (06:50)-2,6 (00:30)0,0 l/m²87%1021,54,8 km/h (1 Bft) N8,0 km/h (2 Bft) N-NO (03:30)
Lindau-Insel420 m06:50-1,4-1,4 (07:25)1,8 (14:55)0,0 l/m²74%1021,50,0 km/h (0 Bft) O-NO29,0 km/h (5 Bft) NO (17:05)
Lindau-Stadt412 m06:50-2,3-2,4 (07:25)1,2 (14:55)0,0 l/m²77%1021,71,6 km/h (1 Bft) NO33,8 km/h (5 Bft) N-NO (15:40)
Maierhöfen im Allgäu733 m06:50-4,7-4,7 (06:50)-1,2 (01:35)0,0 l/m²79%1021,80,0 km/h (0 Bft) NW25,7 km/h (4 Bft) O-SO (02:05)
Maselheim543 m06:50-5,1-5,1 (07:25)-2,3 (13:20)0,0 l/m²87%1023,03,2 km/h (1 Bft) N24,1 km/h (4 Bft) O-NO (15:20)
Maselheim-Sulmingen548 m06:50-5,4-5,4 (07:05)-2,2 (15:15)0,0 l/m²90%1024,31,6 km/h (1 Bft) NW20,9 km/h (4 Bft) N-NO (12:15)
Mietingen-Baltringen528 m06:50-4,9-5,0 (06:35)-1,3 (00:45)0,0 l/m²87%1024,60,0 km/h (0 Bft) O-NO4,8 km/h (1 Bft) N-NO (01:20)
Mindelheim-Apfeltrach620 m06:51-5,8-5,9 (06:51)-2,7 (00:00)0,0 l/m²87%1024,00,0 km/h (0 Bft) NO0,0 km/h (0 Bft) O-NO (00:00)
Mittelbiberach577 m06:51-4,5-4,5 (06:34)-1,0 (00:16)0,0 l/m²85%1023,73,2 km/h (1 Bft) NO12,8 km/h (3 Bft) NO (05:56)
Neresheim552 m06:01-6,8-6,8 (06:01)-2,0 (00:00)0,0 l/m²89%1021,70,0 km/h (0 Bft) O4,0 km/h (1 Bft) NO (01:00)
Neukirch570 m06:50-3,2-3,2 (07:05)-0,9 (14:35)0,0 l/m²81%1021,98,0 km/h (2 Bft) N-NO37,0 km/h (5 Bft) N-NO (11:55)
Ochsenhausen, Birkenstraße613 m06:50-5,6-5,6 (07:10)-2,2 (12:50)0,0 l/m²81%1023,10,0 km/h (0 Bft) NO3,2 km/h (1 Bft) S-SW (07:05)
Ochsenhausen, Unt. Wiesen575 m06:50-5,4-5,7 (06:15)-2,4 (00:00)0,0 l/m²89%1024,40,0 km/h (0 Bft) NO4,8 km/h (1 Bft) NO (00:00)
Opfenbach-Göritz561 m06:51-4,9-5,2 (05:22)-2,8 (00:00)0,0 l/m²76%1019,90,0 km/h (0 Bft) N-NO6,5 km/h (2 Bft) O-NO (00:18)
Ostrach619 m06:50-3,7-3,8 (04:15)-0,6 (00:00)0,0 l/m²89%1021,03,2 km/h (1 Bft) N-NW12,9 km/h (3 Bft) N-NW (06:30)
Ravensburg, Goethestraße428 m06:50-2,0-2,0 (06:50)1,3 (00:00)0,0 l/m²81%1021,817,7 km/h (3 Bft) NO17,7 km/h (3 Bft) NO (06:45)
Ravensburg-Wernsreute511 m06:50-3,3-3,3 (06:50)0,0 (15:50)0,0 l/m²82%1024,517,7 km/h (3 Bft) N35,4 km/h (5 Bft) N-NO (11:45)
Reichenbach an der Fils343 m06:50-2,3-2,3 (06:45)1,0 (00:00)0,0 l/m²77%1025,31,6 km/h (1 Bft) SO12,9 km/h (3 Bft) O-SO (05:10)
Riedlingen530 m06:50-3,5-3,5 (06:50)-1,0 (00:00)0,0 l/m²82%1022,90,0 km/h (0 Bft) O-NO0,0 km/h (0 Bft) N (00:00)
Rißtissen489 m06:50-3,3-3,4 (06:50)-0,2 (00:00)0,0 l/m²85%1020,51,6 km/h (1 Bft) O-NO8,0 km/h (2 Bft) O-NO (03:30)
Rottweil-Hausen681 m06:53-4,6-4,6 (06:46)-1,9 (00:00)0,0 l/m²83%1023,76,5 km/h (2 Bft) N6,5 km/h (2 Bft) N (02:14)
Schemmerhofen520 m06:502,72,7 (00:00)2,7 (00:00)0,0 l/m²55%1021,80,0 km/h (0 Bft) NO0,0 km/h (0 Bft) NO (00:00)
Silbertal im Montafon (AT)884 m06:51-4,4-4,4 (06:14)-1,6 (00:01)0,0 l/m²85%1026,10,0 km/h (0 Bft) O-NO0,0 km/h (0 Bft) O-NO (00:00)
Tettnang466 m06:54-1,7-1,7 (06:48)1,0 (00:00)0,0 l/m²73%1021,63,2 km/h (1 Bft) N16,2 km/h (3 Bft) O-SO (01:07)
Tuttlingen648 m06:46-4,1-4,5 (06:31)-2,1 (00:01)0,0 l/m²76%1023,40,0 km/h (0 Bft) SO5,2 km/h (1 Bft) W-SW (03:26)
Tuttlingen, Möhringer-Vorstadt711 m06:50-4,4-4,5 (07:10)-2,4 (16:05)0,0 l/m²82%1022,53,2 km/h (1 Bft) O-NO25,7 km/h (4 Bft) N-NW (12:35)
Ummendorf547 m06:50-4,8-4,8 (06:30)-0,7 (00:10)0,0 l/m²69%1023,80,0 km/h (0 Bft) O-NO16,1 km/h (3 Bft) O (01:05)
Ummendorf-Fischbach558 m06:50-4,9-5,4 (06:15)-1,9 (01:25)0,0 l/m²70%1023,60,0 km/h (0 Bft) O4,8 km/h (1 Bft) O (04:20)
Waldburg707 m06:50-3,4-3,5 (06:50)-0,8 (00:00)0,0 l/m²80%1021,46,4 km/h (2 Bft) N19,3 km/h (3 Bft) N (02:35)
Waltenhofen im Allgäu720 m06:50-7,4-7,4 (06:50)-2,2 (01:05)0,0 l/m²90%1022,30,0 km/h (0 Bft) W17,7 km/h (3 Bft) W (11:50)
Wangen, Südring548 m06:50-4,1-4,1 (06:25)-0,3 (00:00)0,0 l/m²85%1021,40,0 km/h (0 Bft) NO13,0 km/h (3 Bft) NO (01:25)
Warthausen-Birkenhard581 m06:54-4,4-4,4 (06:32)-1,2 (00:00)0,0 l/m²86%1023,411,9 km/h (3 Bft) N13,7 km/h (3 Bft) NO (06:13)
Winterlingen785 m06:45-5,3-5,6 (06:30)-2,8 (01:00)0,0 l/m²83%1022,31,8 km/h (1 Bft) N-NO3,6 km/h (1 Bft) NO (00:55)

niederschlagsdatenbank | info | login - erfassung

Sollten Sie Interesse haben, an der Niederschlagsdatenbank teilzunehmen, finden Sie > hier < weitere Informationen.
Datum: . . Kalender
Anmerkung:0,0 = nicht messbarer Niederschlag
 -  = kein Niederschlag
 k  = kumulierter Niederschlag

< 06.03.201908.03.2019 >


Niederschlagswerte vom 07.03.2019    -    derzeit 112 Stationen

Die Niederschlagswerte des gewählten Tages lassen sich durch Klicken auf das Datum sortieren.
Die Angaben sind in l/m².

Station04.03.05.03.06.03.07.03.08.03.09.03.10.03.Bemerkung 07.03.
Aichstetten Ulmenstraße 7-------
Aichstetten-Nestbaum Nestbaum-------
Albbruck Furmisstr. 187,8-3,82,00,515,716,2
Aprilwetter + 11°C Nachts +4°C
Regen
Allmendingen Querqueviller Ring 63,9----4,011,0
Amstetten-Reutti Gassenäcker 134,812,0--0,21,66,8
Aulendorf Steinenbacher Weg 33---1,0-4,0-
Regen
Aulendorf-Blönried Heuweg 320,9-----8,2
Bad Bellingen Rheinstraße 76-------
Bad Buchau Hanfweiher 1---6,5 k-4,03,0
Kumuliert
Regen
Bad Saulgau Walserweg1,5--0,00,01,05,0
Nieselregen
Bad Saulgau-Hochberg Lampertsweiler Straße 121,2----2,14,2
Bad Schussenried Konradstraße1,00,0-0,10,12,04,1
Regen
Bad Schussenried Lortzingstrasse1,50,0---2,54,5
Bad Schussenried Klosterstraße4,0--0,3-2,24,0
Regen
Bad Schussenried Theodor-Storm-Strasse1,5----2,34,0
Bad Schussenried-Hopferbach Unterer Öschweg 16/1---0,0-2,24,5
Regen
Bad Schussenried-Lufthütte Hauptgasse 171,0----2,05,0
Bad Schussenried-Sattenbeuren Ortsstraße 7-------
Bad Schussenried-Schwaigfurt Schwaigfurt 21,5----2,85,0
Bad Waldsee-Haisterkirch Zur Spitzenkapelle 10,7--0,7-3,05,0
+3/+13,5°C, Wechsel aus starker Bewölkung und Sonnenschein
Regen
Bad Wurzach-Seibranz Kimpflerhof 2 ---3,01,03,58,5
Baienfurt Untere Bergstrasse 7-----7,010,0
Balzheim Hinterm Liess 192,5----3,02,5
Berg-Kleintobel Kleintobel2,1-0,41,80,96,311,5
Regen
Biberach Amriswilstrasse4,00,2---2,62,6
Biberach Strölinweg4,00,0----5,0
Biberach Erlenweg4,0----3,02,5
Biberach Neue Heimat 54,0----2,83,0
Biberach Mittelbergstraße 93,5----2,02,0
Biberach Auf dem Lindele-------
Biberach-Bergerhausen Löcherstr.14,0--0,0-2,03,0
Bierstetten Schloßbühl 6-----1,84,5
Blaubeuren-Pappelau Sotzenhauserstr.75,03,0---3,05,0
Bühlertal Wolfinstraße 1611,014,0-4,04,03,020,0
Regen
Dettingen a. d. Iller Schleifweg 4-------
Dornstadt-Tomerdingen Maienweg 94,45,60,3-0,03,05,5
Dürnau Dorfäckerweg 53,0--0,3-2,02,5
Regen
Eberhardzell Lilienweg-----2,92,7
Ebersbach-Roßwälden Appenwiesen2,87,80,7--2,17,1
Ehingen Rosenstraße2,80,1-0,00,24,98,8
Regen Nieselregen
Ehingen Zanderstraße1,7----2,26,8
Ehingen Schlaufenbühl3,2-0,4--5,36,4
Ehingen Schillerstraße2,80,0--0,02,86,0
Ehingen-Herbertshofen Tobelweg 9-------
Eislingen Albstraße 1253,87,5-1,81,42,99,3
Regen
Erbach-Bach Hauptstraße 242,50,5--0,02,04,0
Erlenmoos Haldenweg 152,8-0,00,8-3,33,4
Regen
Füramoos Hungersberg 10,00,00,00,00,00,06,2
Gutenzell Kleinser Berg 13,0----3,03,5
Gutenzell-Hürbel Bei der Sägmühle 14,00,0---3,53,0
Herbertingen Drosselweg4,0----3,05,0
Herbertingen Hirschstrasse5,0----3,05,0
Hochdorf-Schweinhausen Lindenweg 20,1-----4,0
Hohentengen-Bremen Bremer Halde 48,00,0---2,06,0
Horgenzell-Ringgenweiler Ringgenweiler 6202,00,00,02,01,36,14,5
Hüttisheim Ulmer Weg 22,00,00,00,00,02,53,5
Illerkirchberg Mahdauweg 202,6----2,84,6
Illerrieden-Wangen Am Muckenberg 123,00,5---3,02,5
Immenstaad Stockwiesen 10-------
Inzigkofen Butzenweg 1---7,3 k0,05,16,0
Regen
Isny Am Dreifingerbach 392,8--7,63,08,414,8
Regen
Schneehöhe: Reste
Kirchberg Rosenstr. 74,0--0,00,03,24,0
Regen
Kreuzthal-Steinberg-Alpe Im Kreuzbachthal 853,61,1-9,75,07,715,3
Regen
Schneehöhe: 55 cm
Langenau Wasserstr. 54-15,0--9,5 k1,53,07,0
Langenenslingen Schattenweiler Str. 186,20,0-0,00,03,17,3
Regen Nieselregen
Leutkirch Unterer Auenweg 251,6-0,03,10,75,08,9
Regen
Leutkirch Nachtigallenweg 281,5--4,51,05,012,5
Leutkirch-Adrazhofen Bergstraße 202,00,5-4,01,06,59,5
Schneehöhe: letzte wenige Reste
Merklingen Millergasse 9-------
Mietingen Seerosenweg 10-------
Mietingen-Walpertshofen Bussenweg 313,0----3,04,0
Mittelbiberach-Reute Rindenmooser Straße 23,5--0,8-2,23,0
Regen Nieselregen
Moosburg Käserweg 55,2--0,0-2,53,0
Zumeist bewölkt. Geringer Niederschlag.
Regen
Münsingen-Rietheim In der Lise 206,03,8-0,00,22,414,2
Regen
Neresheim Alfred-Delp-Straße 84,55,8-0,30,54,69,9
Regen
Oberdischingen Normannenstraße 72,5------
Ochsenhausen Ehrensberger Weg 51,10,0-0,30,02,22,8
Regen
Öpfingen Hauptstraße 993,00,10,00,00,13,26,0
Ostrach Uhlandweg2,0---0,01,58,5
Pfaffenhofen-Kadeltshofen Mühlbachstraße 42,02,0---1,03,0
Pfullendorf Am Schweizersbild 2,3-----13,0
Rangendingen Donaustraße 1910,05,0---4,010,0
Ravensburg Bleicherstraße2,0--1,00,56,58,0
Ravensburg-Schmalegg St.-Magdalena-Ring 422,0-1,02,80,96,05,5
Ravensburg-Wernsreute Wernsreute 252,2--0,80,64,09,0
Nieselregen
Ravensburg-Weststadt Karl-Erb-Ring 1422,3-0,51,01,14,07,5
Regen
Regensburg Orleansstraße 3-------
Riedhausen Blütenweg 131,2--0,80,26,411,4
Temp. +4,3°C / +10,9°C, Windböen SW 46,9 km/h
Regen
Riedlingen Berliner Str. 417,5-----10,5
Riedlingen-Neufra Panoramaweg-------
Riedlingen-Neufra Riedlinger Strasse3,50,00,00,00,02,85,2
+ 5,3 Grad, trocken, bewölkt
Schelklingen-Gundershofen Schwarzer-Straße 146,01,0--1,0-11,0
Temp. zw. +0,2°C und +15,1°C. Sonne und Wolken. Böiger Südwestwind [weiterlesen...]
Schemmerberg Drosselweg 94,51,5---4,04,7
Schwörstadt Schulstrasse 193,8-1,81,2-11,48,6
Regen
Seekirch Haldenberg 7-------
Sigmaringendorf Weingartenstraße 73,8---0,03,85,0
Tuttlingen Möhringerstraße 1113,80,81,6-0,2-0,0
Schneehöhe: Kühltal letzte Reste
Ulm Eberhardtstraße 75-2,02,90,0--2,1
Ummendorf Tulpenweg2,9----2,5-
Ummendorf Friedrich-Schiller-Str.-------
Uttenweiler-Ahlen Seekircher Straße 83,8----2,13,1
Vöhringen (Schwarzwald) Drosselweg 311,05,0-3,0-7,020,0
Waldburg Kastanienweg11-----9,59,0
Wangen-Bergerhöhe Berg 21,2--4,22,26,99,0
Warthausen An der Schloßhalde 4,2----3,03,0
Warthausen Schwabenwiesen 3,6-----6,3
Warthausen-Barabein Barabein 204,0----3,05,5
Weingarten Laurastraße1,2--0,70,51,212,0
+ 2,9 ° C um 5.00 Uhr
Regen Nieselregen
Weingarten Hoyerstraße-------
Weingarten Marienstraße2,0-0,51,01,02,011,0
Regen
Wolfegg-Veesers Veesers 1--135,0----
Wolpertswende Aulendorfer Str. 170,9-0,40,00,04,96,3
Regen

Stillgelegte Niederschlagsstationen    -    derzeit 49 Stationen

StationLetzte Meldung04.03.05.03.06.03.07.03.08.03.09.03.10.03.Bemerkung 07.03.
Allmannsweiler Eggatsweilerstr.2802.09.2014-------
Aulendorf-Rugetsweiler Erikaweg 325.07.2013-------
Aulendorf-Zollenreute Imterstraße 1209.02.2019-------
Bad Saulgau Willi-Burth-Straße19.09.2011-------
Bad Saulgau Eichendorffweg28.03.2013-------
Bad Saulgau Seewattenstraße 12815.01.2014-------
Bad Saulgau-Lampertsweiler Valentinstr. 2618.02.2015-------
Bad Schussenried-Steinhausen Drosselgasse 4/126.09.2012-------
Bad Waldsee-Michelwinnanden Michelberg 531.12.2014-------
Bad Waldsee-Osterhofen Hochwaldgasse 406.03.2015-------
Bad Waldsee-Steinach Hofraingasse 1510.11.2013-------
Bad Wurzach-Dietmanns Postweg 519.01.2019-------
Bad Wurzach-Haidgau Wengener Straße 507.10.2012-------
Bad Wurzach-Ziegelbach Ziegelbach-Greut 507.11.2014-------
Bergatreute Bolanden 113.02.2012-------
Betzenweiler Offinger Straße 505.01.2017-------
Burgrieden Am Nonnenberg 328.10.2013-------
Burgrieden-Rot Schmiedgasse 518.09.2013-------
Eberhardzell Schillerstraße05.07.2010-------
Ehingen Am Elzengraben17.06.2016-------
Gammertingen Schillerstraße 2216.01.2016-------
Griesingen Blumenstraße 906.10.2015-------
Günzburg Erlenbadweg 34 1/231.12.2010-------
Hoßkirch Kirchstraße 805.01.2018-------
Ingoldingen-Grodt Ingoldinger Weg 1919.11.2016-------
Kisslegg Kirchmoosstraße02.05.2011-------
Krauchenwies-Hausen Rosenrain 123.11.2013-------
Kressbronn Irisstraße 410.03.2010-------
Leutkirch-Ottmannshofen Spitalriedstraße 527.07.2012-------
Leutkirch-Rotis Rotis 5/208.05.2016-------
Leutkirch-Wuchzenhofen Untere Kirchstraße 18/119.09.2016-------
Mietingen Hangweg 1530.12.2017-------
Mössingen-Bästenhardt Weissdornweg 721.07.2014-------
Ostrach Heiligenberger Straße19.08.2013-------
Pfullendorf Ringstraße 18.03.2012-------
Ravensburg Olgastraße30.10.2016-------
Seltmans Amselweg 2209.04.2013-------
Stuttgart-Bad Cannstatt Beuthener Str. 6703.02.2013-------
Stuttgart-Möhringen Glashütter Weg 1023.04.2017-------
Stuttgart-Rohr Hirschsprung 307.11.2012-------
Talheim Im Schecken 2121.08.2016-------
Tannheim Eggmannstr. 42 22.10.2017-------
Tettnang-Ramsbach Jahnstr. 24/126.03.2011-------
Tuttlingen-Möhringen Belchenstraße01.01.2015-------
Ummendorf Bergstraße23.10.2017-------
Vogt Mühlwies 1822.05.2015-------
Wangen-Atzenberg Keplerweg 324.02.2019-------
Weingarten Bischof-Sproll-Straße30.06.2011-------
Wilhelmsdorf Riedhauser Straße 28.10.2012-------
Wilhelmsdorf Seefeld20.08.2013-------
Wurmlingen An der Steig 3014.10.2016-------
Die Niederschlagswerte des gewählten Tages lassen sich durch Klicken auf das Datum sortieren.
Die Angaben sind in l/m².

Wetterbeobachtungen Legende:

  • Regen
  • Nieselregen
  • Schneeregen
  • Schnee
  • Graupel
  • Eiskörner
  • Hagel
  • Bodennebel
  • Gewitter
  • Nebelnässe
  • Schneegriesel

Grafische Darstellung der Tagesniederschläge vom 07.03.2019

< 06.03.201908.03.2019 >Monats- und Jahresniederschlag


 
wetterstationen
wetterstationen
- derzeit 83 Stationen
niederschlagsdatenbank
wetterstationen
- kartographische Darstellung
niederschlagsdatenbank
niederschlagsstationen
- derzeit 112 Stationen
niederschlagsdatenbank
niederschlagsstationen
- kartographische Darstellung
 
  treffpunkt & service
--- Anzeigen --------------------------------
zugriffe:
insgesamt: 46.623.488
aktueller monat: 677
heute: 677
momentan online: 32
 
 
monatshöchstwert: 653.625
vorheriger monat: 364.213
gestern: 13.565
tageshöchstwert: 57.073
 
wetterwarte süd
 
konradstraße 3
info@wetterwarte-sued.com
roland roth
 
88427 bad schussenried